FDB3UM OMDB-LIRN
Flight info
| Callsign | FDB3UM |
|---|---|
| Flight time | N/A |
| Altitude | 34000 |
| Route | SENPA DCT ALPOB L768 FIRAS R655 LEBOR UR655 BALMA DCT EVENO UM601 RDS UL995 KEA UL52 KUGGI DCT GARTA UL53 KRK DCT TIGRA DCT MOKTO DCT DOGUS DCT EKTOL |
| Aircraft | B738/M-SDE2E3FGHIRWXY/LB1 |
Departure
| Time | 2026-04-21 08:50 |
|---|---|
| Airport | Dubai International Airport (OMDB) |
Arrival
| Time | N/A |
|---|---|
| Airport | Naples International Airport (LIRN) |
| Time | Latitude | Longitude | Altitude | Speed | Heading |
|---|---|---|---|---|---|
| 2026-04-21 08:48 | 25.24890 | 55.37883 | 49 ft | 0 kts | 300° |
| 2026-04-21 08:49 | 25.24897 | 55.37868 | 48 ft | 14 kts | 300° |
| 2026-04-21 08:49 | 25.25081 | 55.37528 | 46 ft | 88 kts | 300° |
| 2026-04-21 08:49 | 25.25519 | 55.36734 | 41 ft | 152 kts | 301° |
| 2026-04-21 08:50 | 25.26146 | 55.35565 | 148 ft | 185 kts | 299° |
| 2026-04-21 08:50 | 25.26681 | 55.34338 | 649 ft | 183 kts | 293° |
| 2026-04-21 08:50 | 25.27212 | 55.33069 | 1318 ft | 184 kts | 306° |
| 2026-04-21 08:50 | 25.28025 | 55.31959 | 1821 ft | 190 kts | 310° |
| 2026-04-21 08:51 | 25.28836 | 55.30758 | 2281 ft | 197 kts | 304° |
| 2026-04-21 08:51 | 25.29529 | 55.29428 | 2760 ft | 202 kts | 291° |
| 2026-04-21 08:51 | 25.29799 | 55.27895 | 3138 ft | 213 kts | 274° |
| 2026-04-21 08:51 | 25.29864 | 55.26196 | 3479 ft | 226 kts | 274° |
| 2026-04-21 08:52 | 25.29956 | 55.24439 | 3866 ft | 236 kts | 275° |
| 2026-04-21 08:52 | 25.30092 | 55.22620 | 4378 ft | 240 kts | 276° |
| 2026-04-21 08:52 | 25.30243 | 55.20759 | 4918 ft | 245 kts | 276° |
| 2026-04-21 08:52 | 25.30386 | 55.18885 | 5523 ft | 249 kts | 272° |
| 2026-04-21 08:53 | 25.30362 | 55.16980 | 6137 ft | 253 kts | 266° |
| 2026-04-21 08:53 | 25.30210 | 55.15000 | 6553 ft | 265 kts | 264° |
| 2026-04-21 08:53 | 25.30024 | 55.12935 | 6997 ft | 275 kts | 264° |
| 2026-04-21 08:53 | 25.29844 | 55.10829 | 7572 ft | 280 kts | 265° |
| 2026-04-21 08:54 | 25.29673 | 55.08700 | 8266 ft | 281 kts | 265° |
| 2026-04-21 08:54 | 25.29507 | 55.06547 | 8887 ft | 284 kts | 265° |
| 2026-04-21 08:54 | 25.29341 | 55.04389 | 9553 ft | 284 kts | 265° |
| 2026-04-21 08:54 | 25.29173 | 55.02205 | 10140 ft | 288 kts | 265° |
| 2026-04-21 08:55 | 25.28999 | 54.99940 | 10466 ft | 303 kts | 265° |
| 2026-04-21 08:55 | 25.28817 | 54.97590 | 10771 ft | 316 kts | 265° |
| 2026-04-21 08:55 | 25.28626 | 54.95119 | 11053 ft | 330 kts | 265° |
| 2026-04-21 08:55 | 25.28472 | 54.92517 | 11346 ft | 344 kts | 267° |
| 2026-04-21 08:56 | 25.28386 | 54.89840 | 11587 ft | 358 kts | 268° |
| 2026-04-21 08:56 | 25.28325 | 54.87054 | 11991 ft | 366 kts | 268° |
| 2026-04-21 08:56 | 25.28266 | 54.84240 | 12527 ft | 370 kts | 268° |
| 2026-04-21 08:56 | 25.28200 | 54.81428 | 13132 ft | 372 kts | 268° |
| 2026-04-21 08:57 | 25.28125 | 54.78559 | 13735 ft | 374 kts | 268° |
| 2026-04-21 08:57 | 25.28097 | 54.75713 | 14352 ft | 374 kts | 272° |
| 2026-04-21 08:57 | 25.28408 | 54.72869 | 14943 ft | 376 kts | 279° |
| 2026-04-21 08:57 | 25.28996 | 54.70029 | 15479 ft | 379 kts | 283° |
| 2026-04-21 08:58 | 25.29713 | 54.67228 | 16026 ft | 381 kts | 285° |
| 2026-04-21 08:58 | 25.30475 | 54.64434 | 16663 ft | 379 kts | 285° |
| 2026-04-21 08:58 | 25.31232 | 54.61657 | 17197 ft | 380 kts | 284° |
| 2026-04-21 08:58 | 25.31974 | 54.58882 | 17689 ft | 382 kts | 284° |
| 2026-04-21 08:59 | 25.32716 | 54.56035 | 18077 ft | 386 kts | 284° |
| 2026-04-21 08:59 | 25.33450 | 54.53169 | 18535 ft | 389 kts | 283° |
| 2026-04-21 08:59 | 25.34179 | 54.50281 | 18993 ft | 391 kts | 283° |
| 2026-04-21 08:59 | 25.34902 | 54.47391 | 19445 ft | 393 kts | 283° |
| 2026-04-21 09:00 | 25.35630 | 54.44471 | 19785 ft | 398 kts | 283° |
| 2026-04-21 09:00 | 25.36363 | 54.41526 | 20237 ft | 400 kts | 283° |
| 2026-04-21 09:00 | 25.37111 | 54.38516 | 20590 ft | 404 kts | 283° |
| 2026-04-21 09:00 | 25.37848 | 54.35550 | 20973 ft | 407 kts | 284° |
| 2026-04-21 09:01 | 25.38601 | 54.32531 | 21400 ft | 408 kts | 283° |
| 2026-04-21 09:01 | 25.39362 | 54.29480 | 21757 ft | 412 kts | 283° |
| 2026-04-21 09:01 | 25.40125 | 54.26413 | 22155 ft | 414 kts | 283° |
| 2026-04-21 09:01 | 25.40889 | 54.23344 | 22504 ft | 417 kts | 283° |
| 2026-04-21 09:02 | 25.41651 | 54.20279 | 22898 ft | 418 kts | 283° |
| 2026-04-21 09:02 | 25.42418 | 54.17186 | 23301 ft | 420 kts | 284° |
| 2026-04-21 09:02 | 25.43200 | 54.14032 | 23714 ft | 421 kts | 283° |
| 2026-04-21 09:03 | 25.44748 | 54.07773 | 24377 ft | 426 kts | 283° |
| 2026-04-21 09:03 | 25.45528 | 54.04612 | 24744 ft | 428 kts | 283° |
| 2026-04-21 09:03 | 25.46313 | 54.01424 | 25028 ft | 431 kts | 283° |
| 2026-04-21 09:03 | 25.47101 | 53.98216 | 25357 ft | 433 kts | 283° |
| 2026-04-21 09:04 | 25.47893 | 53.94995 | 25692 ft | 435 kts | 283° |
| 2026-04-21 09:04 | 25.48685 | 53.91774 | 26064 ft | 435 kts | 283° |
| 2026-04-21 09:04 | 25.49472 | 53.88567 | 26391 ft | 437 kts | 283° |
| 2026-04-21 09:04 | 25.50267 | 53.85320 | 26686 ft | 439 kts | 283° |
| 2026-04-21 09:05 | 25.51066 | 53.82055 | 26982 ft | 441 kts | 283° |
| 2026-04-21 09:05 | 25.51871 | 53.78771 | 27244 ft | 443 kts | 283° |
| 2026-04-21 09:05 | 25.52677 | 53.75484 | 27473 ft | 446 kts | 283° |
| 2026-04-21 09:05 | 25.53486 | 53.72174 | 27668 ft | 450 kts | 283° |
| 2026-04-21 09:06 | 25.54306 | 53.68816 | 27901 ft | 452 kts | 283° |
| 2026-04-21 09:06 | 25.55125 | 53.65451 | 28095 ft | 445 kts | 283° |
| 2026-04-21 09:06 | 25.55901 | 53.62265 | 28222 ft | 425 kts | 282° |
| 2026-04-21 09:06 | 25.56657 | 53.59174 | 28260 ft | 408 kts | 283° |
| 2026-04-21 09:07 | 25.57386 | 53.56188 | 28279 ft | 391 kts | 283° |
| 2026-04-21 09:07 | 25.58080 | 53.53339 | 28330 ft | 385 kts | 282° |
| 2026-04-21 09:07 | 25.58768 | 53.50481 | 28456 ft | 389 kts | 283° |
| 2026-04-21 09:07 | 25.59468 | 53.47567 | 28636 ft | 392 kts | 283° |
| 2026-04-21 09:08 | 25.60173 | 53.44644 | 28911 ft | 392 kts | 282° |
| 2026-04-21 09:08 | 25.60879 | 53.41725 | 29134 ft | 394 kts | 282° |
| 2026-04-21 09:08 | 25.61587 | 53.38792 | 29357 ft | 396 kts | 283° |
| 2026-04-21 09:08 | 25.62294 | 53.35857 | 29615 ft | 396 kts | 282° |
| 2026-04-21 09:09 | 25.63003 | 53.32910 | 29835 ft | 399 kts | 282° |
| 2026-04-21 09:09 | 25.63720 | 53.29918 | 30082 ft | 400 kts | 282° |
| 2026-04-21 09:09 | 25.64444 | 53.26907 | 30250 ft | 403 kts | 282° |
| 2026-04-21 09:09 | 25.65166 | 53.23907 | 30479 ft | 404 kts | 282° |
| 2026-04-21 09:10 | 25.65890 | 53.20898 | 30786 ft | 403 kts | 282° |
| 2026-04-21 09:10 | 25.66608 | 53.17905 | 31068 ft | 402 kts | 283° |
| 2026-04-21 09:10 | 25.67333 | 53.14883 | 31445 ft | 400 kts | 282° |
| 2026-04-21 09:10 | 25.68044 | 53.11915 | 31735 ft | 399 kts | 283° |
| 2026-04-21 09:11 | 25.68747 | 53.08972 | 31966 ft | 399 kts | 283° |
| 2026-04-21 09:11 | 25.69463 | 53.05987 | 32258 ft | 398 kts | 283° |
| 2026-04-21 09:11 | 25.70226 | 53.03046 | 32601 ft | 395 kts | 285° |
| 2026-04-21 09:11 | 25.71170 | 53.00206 | 32770 ft | 398 kts | 290° |
| 2026-04-21 09:12 | 25.72337 | 52.97415 | 32945 ft | 400 kts | 293° |
| 2026-04-21 09:12 | 25.73606 | 52.94683 | 33191 ft | 399 kts | 294° |
| 2026-04-21 09:12 | 25.74920 | 52.91967 | 33458 ft | 398 kts | 295° |
| 2026-04-21 09:12 | 25.76227 | 52.89286 | 33631 ft | 398 kts | 295° |
| 2026-04-21 09:13 | 25.77546 | 52.86565 | 33818 ft | 398 kts | 295° |
| 2026-04-21 09:13 | 25.78837 | 52.83879 | 33831 ft | 400 kts | 295° |
| 2026-04-21 09:13 | 25.81460 | 52.78363 | 33832 ft | 406 kts | 295° |
| 2026-04-21 09:14 | 25.84081 | 52.72823 | 33829 ft | 409 kts | 294° |
| 2026-04-21 09:14 | 25.86735 | 52.67197 | 33829 ft | 411 kts | 294° |
| 2026-04-21 09:15 | 25.89369 | 52.61591 | 33827 ft | 409 kts | 295° |
| 2026-04-21 09:15 | 25.91926 | 52.56001 | 33830 ft | 408 kts | 293° |
| 2026-04-21 09:16 | 25.94416 | 52.50333 | 33828 ft | 409 kts | 293° |
| 2026-04-21 09:16 | 25.96887 | 52.44668 | 33829 ft | 407 kts | 293° |
| 2026-04-21 09:17 | 25.99356 | 52.39031 | 33822 ft | 405 kts | 293° |
| 2026-04-21 09:17 | 26.01840 | 52.33431 | 33825 ft | 405 kts | 293° |
| 2026-04-21 09:18 | 26.04351 | 52.27822 | 33827 ft | 404 kts | 293° |